Time;durP1;ratioP1;P1;durP2;ratioP2;P2;SDS_P1;SDS_P2;PMS_P1;PMS_P2;Temp;Humidity;BMP_temperature;BMP_pressure;BME280_temperature;BME280_humidity;BME280_pressure;Samples;Min_cycle;Max_cycle;Signal;HPM_P1;HPM_P2
2023/06/20 00:02:03;;;;;;;22.67;12.25;;;23.00;94.60;;;;;;5091316;28;20051;-70
2023/06/20 00:05:07;;;;;;;17.50;12.55;;;23.00;94.70;;;;;;5090718;28;20035;-70
2023/06/20 00:08:11;;;;;;;21.58;11.70;;;23.00;94.80;;;;;;5091073;28;20043;-70
2023/06/20 00:11:15;;;;;;;19.05;12.32;;;23.00;95.00;;;;;;5091309;28;20051;-70
2023/06/20 00:14:19;;;;;;;19.13;11.80;;;22.90;94.80;;;;;;5091072;28;20046;-70
2023/06/20 00:17:25;;;;;;;13.70;10.32;;;22.90;93.80;;;;;;5091198;28;20043;-70
2023/06/20 00:20:30;;;;;;;16.38;10.18;;;22.80;92.80;;;;;;5091339;28;20047;-70
2023/06/20 00:23:34;;;;;;;13.57;9.75;;;22.80;92.90;;;;;;5091027;28;20047;-70
2023/06/20 00:26:38;;;;;;;14.50;9.55;;;22.80;92.70;;;;;;5091060;28;20039;-70
2023/06/20 00:29:41;;;;;;;19.00;11.15;;;22.80;92.50;;;;;;5078611;28;20051;-70
2023/06/20 00:32:45;;;;;;;12.68;10.23;;;22.90;92.70;;;;;;5090879;28;20050;-70
2023/06/20 00:35:49;;;;;;;12.57;9.07;;;22.90;92.60;;;;;;5091322;28;20391;-70
2023/06/20 00:38:54;;;;;;;13.10;9.68;;;22.90;92.10;;;;;;5091062;28;20380;-70
2023/06/20 00:41:58;;;;;;;16.95;9.90;;;22.80;91.90;;;;;;5090815;28;20404;-70
2023/06/20 00:45:03;;;;;;;10.82;9.43;;;22.80;92.00;;;;;;5091017;28;20055;-70
2023/06/20 00:48:08;;;;;;;14.57;9.55;;;22.80;92.10;;;;;;5090926;28;20047;-70
2023/06/20 00:51:13;;;;;;;13.30;9.25;;;22.80;92.30;;;;;;5090878;28;20055;-70
2023/06/20 00:54:17;;;;;;;12.93;10.02;;;22.70;92.20;;;;;;5090016;28;20300;-70
2023/06/20 00:57:21;;;;;;;14.32;8.93;;;22.60;92.30;;;;;;5090930;28;20389;-70
2023/06/20 01:00:27;;;;;;;13.05;9.35;;;22.60;92.40;;;;;;5090711;28;20043;-70
2023/06/20 01:03:31;;;;;;;14.07;9.32;;;22.60;92.40;;;;;;5090578;28;20506;-70
2023/06/20 01:06:41;;;;;;;12.38;10.07;;;22.60;92.40;;;;;;5090578;28;20039;-70
2023/06/20 01:10:06;;;;;;;12.55;10.40;;;22.50;92.60;;;;;;5090627;28;20404;-70
2023/06/20 01:13:38;;;;;;;17.58;9.95;;;22.40;92.80;;;;;;5089423;28;20644;-70
2023/06/20 01:17:00;;;;;;;13.25;9.57;;;22.40;92.90;;;;;;5092016;28;20043;-70
2023/06/20 01:20:20;;;;;;;11.90;9.77;;;22.40;92.80;;;;;;5093973;28;20043;-70
2023/06/20 01:23:41;;;;;;;13.13;9.55;;;22.40;92.40;;;;;;5094219;28;20360;-70
2023/06/20 01:26:57;;;;;;;15.13;10.05;;;22.40;92.60;;;;;;5083421;28;20050;-70
2023/06/20 01:30:09;;;;;;;12.50;10.05;;;22.40;92.40;;;;;;5094249;28;20047;-70
2023/06/20 01:33:17;;;;;;;15.98;9.82;;;22.50;92.20;;;;;;5093433;28;20055;-70
2023/06/20 01:36:22;;;;;;;14.27;10.23;;;22.50;92.30;;;;;;5094641;28;20395;-70
2023/06/20 01:39:58;;;;;;;11.30;9.70;;;22.50;92.30;;;;;;5094209;28;20035;-70
2023/06/20 01:43:05;;;;;;;17.60;9.70;;;22.50;92.10;;;;;;5093840;28;20055;-70
2023/06/20 01:46:10;;;;;;;13.23;9.55;;;22.30;91.90;;;;;;5094060;28;20035;-70
2023/06/20 01:49:16;;;;;;;12.90;9.70;;;22.40;91.80;;;;;;5093954;28;20046;-70
2023/06/20 01:52:22;;;;;;;15.70;9.85;;;22.50;91.70;;;;;;5093183;28;20043;-70
2023/06/20 01:55:29;;;;;;;15.65;9.38;;;22.40;91.80;;;;;;5093154;28;20047;-70
2023/06/20 01:58:34;;;;;;;11.40;9.73;;;22.40;91.40;;;;;;5093201;28;20043;-70
2023/06/20 02:01:42;;;;;;;9.93;8.73;;;22.40;91.30;;;;;;5092873;28;20039;-70
2023/06/20 02:04:46;;;;;;;16.38;9.43;;;22.30;91.10;;;;;;5093066;28;20051;-70
2023/06/20 02:07:53;;;;;;;11.75;9.10;;;22.20;90.90;;;;;;5093372;28;20387;-70
2023/06/20 02:10:59;;;;;;;13.57;8.73;;;22.00;90.70;;;;;;5093050;28;20067;-70
2023/06/20 02:14:04;;;;;;;12.15;8.98;;;21.90;90.90;;;;;;5092487;28;20503;-70
2023/06/20 02:17:12;;;;;;;13.38;8.73;;;22.00;90.70;;;;;;5092445;28;20038;-70
2023/06/20 02:20:17;;;;;;;12.73;8.63;;;22.00;90.50;;;;;;5092539;28;20047;-70
2023/06/20 02:23:29;;;;;;;10.00;8.10;;;22.00;89.90;;;;;;5092873;28;20055;-70
2023/06/20 02:26:38;;;;;;;11.30;8.10;;;22.00;90.00;;;;;;5093295;28;20506;-70
2023/06/20 02:29:44;;;;;;;13.73;8.57;;;22.00;89.30;;;;;;5093355;28;20507;-70
2023/06/20 02:32:49;;;;;;;13.60;9.35;;;22.00;89.30;;;;;;5093080;28;20051;-70
2023/06/20 02:35:55;;;;;;;12.15;8.77;;;22.00;89.10;;;;;;5092273;28;20252;-70
2023/06/20 02:38:59;;;;;;;12.30;9.15;;;22.00;89.00;;;;;;5092957;28;20048;-70
2023/06/20 02:42:03;;;;;;;11.65;9.55;;;22.00;89.20;;;;;;5092611;28;20055;-70
2023/06/20 02:45:07;;;;;;;13.18;8.80;;;22.00;89.70;;;;;;5092762;28;20059;-70
2023/06/20 02:48:37;;;;;;;12.07;9.77;;;22.10;90.00;;;;;;5092022;28;20043;-70
2023/06/20 02:52:08;;;;;;;11.73;8.30;;;22.10;90.30;;;;;;5092714;28;20043;-70
2023/06/20 02:55:34;;;;;;;14.88;9.13;;;22.00;90.40;;;;;;5092883;28;20051;-70
2023/06/20 02:58:42;;;;;;;13.02;8.52;;;22.00;90.20;;;;;;5091973;28;20047;-70
2023/06/20 03:01:47;;;;;;;12.45;7.22;;;21.90;90.40;;;;;;5091978;28;20431;-70
2023/06/20 03:04:56;;;;;;;13.90;8.27;;;21.60;90.10;;;;;;5092509;28;20047;-70
2023/06/20 03:08:03;;;;;;;16.15;8.07;;;21.50;90.40;;;;;;5091443;28;20047;-70
2023/06/20 03:11:08;;;;;;;16.10;8.40;;;21.50;90.50;;;;;;5092529;28;20392;-70
2023/06/20 03:14:15;;;;;;;15.30;8.48;;;21.40;90.80;;;;;;5091954;28;20050;-70
2023/06/20 03:17:19;;;;;;;14.23;8.18;;;21.30;91.00;;;;;;5091397;28;20043;-70
2023/06/20 03:20:23;;;;;;;14.10;8.45;;;21.30;91.10;;;;;;5091318;28;20055;-70
2023/06/20 03:23:27;;;;;;;11.30;9.20;;;21.30;90.90;;;;;;5090823;28;20055;-70
2023/06/20 03:26:36;;;;;;;14.25;10.45;;;21.30;91.30;;;;;;5091535;28;20043;-70
2023/06/20 03:29:40;;;;;;;11.95;9.80;;;21.30;91.70;;;;;;5091229;28;20502;-70
2023/06/20 03:32:45;;;;;;;12.90;10.73;;;21.30;92.10;;;;;;5091013;28;20047;-70
2023/06/20 03:35:50;;;;;;;16.05;10.85;;;21.30;92.30;;;;;;5091287;28;20486;-70
2023/06/20 03:38:54;;;;;;;15.27;10.73;;;21.40;92.20;;;;;;5090937;28;20063;-70
2023/06/20 03:42:00;;;;;;;15.93;11.07;;;21.40;92.00;;;;;;5091014;28;20652;-70
2023/06/20 03:45:05;;;;;;;20.10;11.32;;;21.50;92.10;;;;;;5091109;28;20047;-70
2023/06/20 03:48:11;;;;;;;19.50;11.30;;;21.60;92.10;;;;;;5090821;28;20043;-70
2023/06/20 03:51:16;;;;;;;19.73;11.57;;;21.50;92.10;;;;;;5091117;28;20043;-70
2023/06/20 03:54:21;;;;;;;18.17;11.48;;;21.40;92.30;;;;;;5079130;28;20035;-70
2023/06/20 03:57:25;;;;;;;17.95;11.07;;;21.40;92.60;;;;;;5090802;28;20047;-70
2023/06/20 04:00:30;;;;;;;13.43;10.32;;;21.50;92.50;;;;;;5090931;28;20040;-70
2023/06/20 04:03:34;;;;;;;16.80;10.32;;;21.40;92.40;;;;;;5078566;28;20051;-70
2023/06/20 04:06:38;;;;;;;13.60;9.90;;;21.50;92.50;;;;;;5091229;28;20047;-70
2023/06/20 04:09:43;;;;;;;14.50;9.90;;;21.50;92.50;;;;;;5090336;28;20098;-70
2023/06/20 04:12:47;;;;;;;18.42;9.93;;;21.50;92.20;;;;;;5091125;28;20039;-70
2023/06/20 04:15:51;;;;;;;18.95;11.20;;;21.50;92.40;;;;;;5091060;28;20051;-70
2023/06/20 04:18:55;;;;;;;12.90;10.00;;;21.60;92.50;;;;;;5091252;28;20043;-70
2023/06/20 04:22:01;;;;;;;14.32;10.13;;;21.60;92.40;;;;;;5091211;28;20046;-70
2023/06/20 04:25:05;;;;;;;14.00;9.73;;;21.70;92.40;;;;;;5078832;28;20050;-70
2023/06/20 04:28:09;;;;;;;17.00;10.18;;;21.70;92.30;;;;;;5090342;28;20043;-70
2023/06/20 04:31:23;;;;;;;17.15;10.05;;;21.80;92.20;;;;;;5090318;28;20047;-70
2023/06/20 04:34:27;;;;;;;15.57;9.13;;;21.80;91.60;;;;;;5090972;28;20043;-70
2023/06/20 04:37:31;;;;;;;16.17;9.95;;;21.90;91.30;;;;;;5090762;28;20039;-70
2023/06/20 04:40:38;;;;;;;13.05;9.10;;;22.10;91.20;;;;;;5090352;28;20043;-69
2023/06/20 04:43:44;;;;;;;12.32;8.98;;;22.30;90.70;;;;;;5089984;28;20051;-70
2023/06/20 04:46:48;;;;;;;20.60;9.07;;;22.50;90.20;;;;;;5089965;28;20510;-69
2023/06/20 04:49:52;;;;;;;20.67;9.65;;;22.50;90.20;;;;;;5090068;28;20205;-70
2023/06/20 04:52:58;;;;;;;14.77;8.98;;;22.60;90.00;;;;;;5094315;28;20047;-70
2023/06/20 04:56:02;;;;;;;16.52;8.10;;;22.70;89.90;;;;;;5094104;28;20067;-70
2023/06/20 04:59:10;;;;;;;14.75;8.95;;;22.80;89.20;;;;;;5094566;28;20221;-70
2023/06/20 05:02:14;;;;;;;18.00;9.77;;;22.80;88.90;;;;;;5095077;28;20055;-70
2023/06/20 05:05:19;;;;;;;26.15;10.45;;;23.00;88.20;;;;;;5095036;28;20392;-70
2023/06/20 05:08:23;;;;;;;24.95;9.05;;;23.00;87.30;;;;;;5093937;28;20502;-70
2023/06/20 05:11:27;;;;;;;16.65;8.77;;;23.20;87.90;;;;;;5094982;28;20047;-70
2023/06/20 05:14:31;;;;;;;14.10;8.82;;;23.40;87.50;;;;;;5094072;28;20114;-70
2023/06/20 05:17:35;;;;;;;16.92;9.65;;;23.60;87.20;;;;;;5094579;28;20043;-70
2023/06/20 05:20:39;;;;;;;16.85;9.07;;;23.90;87.10;;;;;;5094373;28;20043;-70
2023/06/20 05:23:42;;;;;;;32.20;10.18;;;24.10;86.70;;;;;;5094160;28;20074;-71
2023/06/20 05:26:46;;;;;;;54.28;11.60;;;24.20;87.50;;;;;;5094747;28;20043;-64
2023/06/20 05:29:51;;;;;;;41.53;10.73;;;24.50;87.90;;;;;;5094326;28;20512;-64
2023/06/20 05:32:55;;;;;;;36.13;10.05;;;24.80;87.60;;;;;;5094457;28;20039;-64
2023/06/20 05:35:58;;;;;;;30.80;11.32;;;25.00;86.10;;;;;;5094688;28;20047;-64
2023/06/20 05:39:04;;;;;;;32.38;10.10;;;25.20;83.20;;;;;;5094362;28;20499;-64
2023/06/20 05:42:08;;;;;;;27.20;8.90;;;25.30;83.10;;;;;;5094083;28;20039;-64
2023/06/20 05:45:12;;;;;;;16.35;8.95;;;25.40;81.80;;;;;;5094473;28;20051;-64
2023/06/20 05:48:16;;;;;;;23.05;8.80;;;25.50;82.10;;;;;;5094079;28;20047;-64
2023/06/20 05:51:20;;;;;;;32.22;9.55;;;25.60;82.80;;;;;;5093844;28;20497;-64
2023/06/20 05:54:25;;;;;;;34.97;9.82;;;25.70;82.80;;;;;;5093739;28;20047;-64
2023/06/20 05:57:29;;;;;;;34.00;9.10;;;25.60;82.80;;;;;;5093554;28;20403;-64
2023/06/20 06:00:33;;;;;;;27.98;10.00;;;25.70;82.90;;;;;;5093881;28;20519;-65
2023/06/20 06:03:37;;;;;;;20.23;8.60;;;25.80;83.40;;;;;;5093291;28;20534;-65
2023/06/20 06:06:41;;;;;;;29.77;9.02;;;26.10;83.40;;;;;;5094007;28;20051;-65
2023/06/20 06:09:45;;;;;;;25.25;8.27;;;26.30;82.60;;;;;;5093053;28;20059;-64
2023/06/20 06:12:49;;;;;;;25.00;10.32;;;26.60;82.30;;;;;;5094018;28;20043;-64
2023/06/20 06:15:53;;;;;;;22.85;8.82;;;26.70;82.10;;;;;;5093804;28;20047;-64
2023/06/20 06:18:59;;;;;;;27.13;9.02;;;27.00;82.00;;;;;;5093420;28;20047;-65
2023/06/20 06:22:04;;;;;;;22.63;8.38;;;27.10;82.10;;;;;;5093358;28;20507;-65
2023/06/20 06:25:08;;;;;;;19.23;8.15;;;27.30;81.00;;;;;;5093204;28;20060;-65
2023/06/20 06:28:12;;;;;;;20.80;8.35;;;27.40;81.80;;;;;;5092975;28;20039;-64
2023/06/20 06:31:24;;;;;;;19.17;8.82;;;27.60;81.50;;;;;;5093361;28;20043;-65
2023/06/20 06:34:28;;;;;;;23.75;10.27;;;27.80;80.00;;;;;;5093180;28;20066;-64
2023/06/20 06:37:33;;;;;;;33.15;8.80;;;27.90;80.70;;;;;;5093395;28;20388;-64
2023/06/20 06:40:37;;;;;;;12.00;7.82;;;28.20;80.70;;;;;;5093036;28;20483;-64
2023/06/20 06:43:41;;;;;;;17.95;8.38;;;28.40;79.70;;;;;;5092802;28;20404;-64
2023/06/20 06:46:44;;;;;;;25.75;9.38;;;28.60;79.90;;;;;;5092386;28;20047;-64
2023/06/20 06:49:48;;;;;;;24.45;7.72;;;28.80;79.90;;;;;;5092978;28;20063;-66
2023/06/20 06:52:53;;;;;;;13.65;6.75;;;29.00;78.70;;;;;;5092726;28;20055;-65
2023/06/20 06:55:57;;;;;;;17.30;6.25;;;29.20;75.30;;;;;;5092607;28;20055;-64
2023/06/20 06:59:02;;;;;;;17.98;6.95;;;29.30;75.30;;;;;;5092648;28;20047;-64
2023/06/20 07:02:06;;;;;;;13.52;6.20;;;29.40;74.70;;;;;;5092513;28;20114;-64
2023/06/20 07:05:11;;;;;;;19.38;6.80;;;29.60;73.80;;;;;;5091532;28;20059;-64
2023/06/20 07:08:15;;;;;;;15.63;6.82;;;29.70;74.10;;;;;;5092270;28;20051;-64
2023/06/20 07:11:19;;;;;;;10.20;6.68;;;29.90;73.90;;;;;;5092217;28;20058;-64
2023/06/20 07:14:23;;;;;;;12.50;6.50;;;30.00;73.40;;;;;;5091885;28;20058;-64
2023/06/20 07:17:27;;;;;;;15.82;6.57;;;30.20;72.60;;;;;;5092470;28;20495;-64
2023/06/20 07:20:31;;;;;;;11.32;6.45;;;30.30;72.70;;;;;;5092179;28;20054;-64
2023/06/20 07:23:35;;;;;;;15.38;6.57;;;30.30;71.60;;;;;;5091936;28;20059;-64
2023/06/20 07:26:39;;;;;;;18.58;7.20;;;30.50;72.30;;;;;;5092021;28;20404;-64
2023/06/20 07:29:43;;;;;;;13.57;6.70;;;30.60;71.50;;;;;;5091223;28;20047;-64
2023/06/20 07:32:48;;;;;;;15.77;6.20;;;30.70;70.50;;;;;;5091880;28;20490;-65
2023/06/20 07:35:52;;;;;;;10.63;5.82;;;30.90;68.50;;;;;;5091780;28;20063;-64
2023/06/20 07:38:56;;;;;;;9.15;5.30;;;30.90;68.40;;;;;;5091770;28;20067;-64
2023/06/20 07:42:00;;;;;;;5.43;4.40;;;31.00;65.70;;;;;;5091420;28;20047;-64
2023/06/20 07:45:04;;;;;;;7.25;5.40;;;31.00;63.20;;;;;;5091375;28;20399;-64
2023/06/20 07:48:08;;;;;;;12.30;6.05;;;30.80;65.90;;;;;;5091799;28;20051;-64
2023/06/20 07:51:12;;;;;;;12.02;6.20;;;31.00;67.60;;;;;;5091526;28;20043;-65
2023/06/20 07:54:16;;;;;;;11.13;6.28;;;31.10;68.30;;;;;;5091651;28;20043;-64
2023/06/20 07:57:20;;;;;;;15.00;6.43;;;31.10;68.20;;;;;;5091574;28;20047;-64
2023/06/20 08:00:25;;;;;;;15.00;5.72;;;31.30;68.40;;;;;;5091347;28;20058;-64
2023/06/20 08:03:28;;;;;;;24.65;6.60;;;31.40;66.50;;;;;;5091338;28;20046;-64
2023/06/20 08:06:32;;;;;;;13.30;6.13;;;31.60;66.90;;;;;;5090552;28;20498;-65
2023/06/20 08:09:36;;;;;;;15.05;6.68;;;31.80;66.10;;;;;;5090876;28;20055;-64
2023/06/20 08:12:40;;;;;;;13.65;5.68;;;31.90;65.60;;;;;;5091008;28;20161;-64
2023/06/20 08:15:44;;;;;;;11.05;5.90;;;31.80;65.30;;;;;;5090883;28;20056;-64
2023/06/20 08:18:48;;;;;;;11.43;6.10;;;31.90;66.10;;;;;;5091098;28;20486;-64
2023/06/20 08:21:51;;;;;;;12.32;6.40;;;32.00;65.60;;;;;;5090982;28;20038;-64
2023/06/20 08:24:55;;;;;;;11.73;6.65;;;32.20;66.10;;;;;;5090561;28;20051;-65
2023/06/20 08:28:00;;;;;;;9.60;6.30;;;32.30;66.00;;;;;;5091038;28;20506;-64
2023/06/20 08:31:04;;;;;;;10.23;5.55;;;32.20;65.40;;;;;;5090954;28;20400;-64
2023/06/20 08:34:08;;;;;;;21.35;7.10;;;32.20;67.00;;;;;;5090787;28;20066;-64
2023/06/20 08:37:12;;;;;;;20.02;7.13;;;32.30;67.50;;;;;;5090726;28;20043;-64
2023/06/20 08:40:16;;;;;;;14.15;7.82;;;32.40;67.00;;;;;;5090798;28;20039;-65
2023/06/20 08:43:20;;;;;;;17.48;7.38;;;32.40;66.10;;;;;;5090165;28;20158;-65
2023/06/20 08:46:24;;;;;;;15.77;6.85;;;32.20;67.40;;;;;;5090531;28;20189;-65
2023/06/20 08:49:28;;;;;;;38.75;9.63;;;32.30;67.90;;;;;;5089878;28;20059;-65
2023/06/20 08:52:41;;;;;;;21.55;7.53;;;32.30;67.60;;;;;;5090547;28;20039;-64
2023/06/20 08:55:46;;;;;;;20.95;8.25;;;32.40;68.30;;;;;;5090756;28;20047;-65
2023/06/20 08:58:49;;;;;;;12.52;7.10;;;32.50;68.70;;;;;;5090796;28;20077;-64
2023/06/20 09:01:53;;;;;;;12.13;7.28;;;32.50;68.20;;;;;;5090829;28;20042;-64
2023/06/20 09:05:02;;;;;;;19.92;8.07;;;32.60;68.10;;;;;;5090497;28;20416;-65
2023/06/20 09:08:06;;;;;;;11.43;7.20;;;32.70;67.50;;;;;;5090516;28;20043;-64
2023/06/20 09:11:11;;;;;;;21.08;8.57;;;32.60;67.60;;;;;;5090388;28;20043;-64
2023/06/20 09:14:16;;;;;;;12.10;7.63;;;32.60;67.60;;;;;;5090625;28;20499;-64
2023/06/20 09:17:20;;;;;;;19.80;9.25;;;32.70;67.90;;;;;;5090571;28;20414;-64
2023/06/20 09:20:29;;;;;;;17.60;8.82;;;32.60;67.90;;;;;;5090623;28;20285;-64
2023/06/20 09:23:33;;;;;;;20.02;8.43;;;32.50;68.00;;;;;;5090131;28;20059;-65
2023/06/20 09:26:38;;;;;;;15.88;8.25;;;32.50;67.90;;;;;;5090403;28;20051;-64
2023/06/20 09:29:56;;;;;;;17.33;9.23;;;32.50;70.00;;;;;;5090394;28;20503;-64
2023/06/20 09:33:03;;;;;;;14.40;9.45;;;32.50;70.40;;;;;;5090505;28;20467;-64
2023/06/20 09:36:14;;;;;;;14.45;8.00;;;32.50;71.10;;;;;;5090809;28;20043;-64
2023/06/20 09:39:21;;;;;;;11.30;7.80;;;32.60;72.00;;;;;;5094113;28;20411;-64
2023/06/20 09:42:25;;;;;;;11.73;7.50;;;32.60;70.50;;;;;;5093963;28;20043;-65
2023/06/20 09:45:29;;;;;;;13.60;8.45;;;32.70;70.60;;;;;;5093285;28;20058;-64
2023/06/20 09:48:33;;;;;;;13.85;8.30;;;32.80;70.60;;;;;;5094072;28;20047;-64
2023/06/20 09:52:02;;;;;;;12.40;8.98;;;32.80;71.10;;;;;;5093953;28;20074;-64
2023/06/20 09:55:12;;;;;;;14.80;8.85;;;32.80;70.70;;;;;;5093872;28;20047;-64
2023/06/20 09:58:18;;;;;;;13.17;8.00;;;32.60;70.20;;;;;;5092871;28;20050;-64
2023/06/20 10:01:24;;;;;;;9.55;7.40;;;32.60;70.70;;;;;;5093517;28;20596;-64
2023/06/20 10:04:30;;;;;;;14.80;8.52;;;32.60;70.80;;;;;;5093262;28;20542;-64
2023/06/20 10:07:36;;;;;;;12.80;8.07;;;32.70;70.80;;;;;;5092732;28;20436;-64
2023/06/20 10:10:40;;;;;;;14.98;8.35;;;32.70;70.40;;;;;;5093144;28;20051;-64
2023/06/20 10:13:45;;;;;;;11.30;8.07;;;32.80;69.90;;;;;;5093997;28;20046;-64
2023/06/20 10:16:52;;;;;;;12.30;8.23;;;32.70;70.10;;;;;;5093553;28;20148;-64
2023/06/20 10:19:58;;;;;;;11.45;8.15;;;32.80;70.60;;;;;;5092983;28;20054;-64
2023/06/20 10:23:05;;;;;;;10.88;7.93;;;32.80;71.00;;;;;;5093023;28;20047;-63
2023/06/20 10:26:11;;;;;;;12.75;8.40;;;32.80;70.40;;;;;;5093115;28;20217;-63
2023/06/20 10:29:15;;;;;;;13.40;9.05;;;32.80;70.50;;;;;;5093185;28;20404;-64
2023/06/20 10:32:19;;;;;;;16.95;9.00;;;32.70;72.70;;;;;;5092929;28;20067;-64
2023/06/20 10:35:23;;;;;;;10.95;7.53;;;32.70;72.00;;;;;;5092933;28;20047;-64
2023/06/20 10:38:28;;;;;;;13.20;8.55;;;32.60;71.80;;;;;;5093381;28;20072;-63
2023/06/20 10:41:33;;;;;;;16.88;8.95;;;32.60;73.50;;;;;;5092929;28;20055;-64
2023/06/20 10:44:37;;;;;;;17.88;9.13;;;32.60;74.00;;;;;;5092950;28;20059;-63
2023/06/20 10:47:41;;;;;;;10.55;8.70;;;32.60;73.80;;;;;;5091598;28;20538;-63
2023/06/20 10:50:45;;;;;;;14.05;9.48;;;32.50;73.20;;;;;;5092306;28;20047;-63
2023/06/20 10:53:49;;;;;;;10.85;8.30;;;32.40;74.60;;;;;;5092941;28;20051;-64
2023/06/20 10:56:53;;;;;;;18.52;8.60;;;32.40;75.30;;;;;;5091633;28;20518;-66
2023/06/20 10:59:57;;;;;;;14.00;8.77;;;32.40;75.70;;;;;;5092824;28;20055;-66
2023/06/20 11:03:01;;;;;;;10.65;7.70;;;32.40;75.20;;;;;;5092480;28;20381;-66
2023/06/20 11:06:05;;;;;;;12.00;8.43;;;32.40;74.70;;;;;;5092071;28;20199;-66
2023/06/20 11:09:20;;;;;;;12.77;7.97;;;32.40;74.20;;;;;;5091986;28;20055;-65
2023/06/20 11:12:24;;;;;;;12.35;8.63;;;32.40;75.10;;;;;;5092204;28;20047;-66
2023/06/20 11:15:33;;;;;;;10.45;8.55;;;32.30;74.70;;;;;;5090819;28;20043;-66
2023/06/20 11:18:36;;;;;;;15.23;9.35;;;32.30;75.40;;;;;;5091796;28;20051;-66
2023/06/20 11:21:41;;;;;;;11.18;8.93;;;32.30;76.50;;;;;;5092416;28;20051;-66
2023/06/20 11:24:45;;;;;;;14.10;9.00;;;32.30;77.80;;;;;;5091742;28;20059;-66
2023/06/20 11:27:49;;;;;;;15.38;8.75;;;32.20;78.10;;;;;;5090918;28;20035;-66
2023/06/20 11:30:52;;;;;;;12.13;9.05;;;32.20;78.20;;;;;;5092215;28;20051;-67
2023/06/20 11:34:03;;;;;;;18.98;9.68;;;32.20;78.40;;;;;;5092205;28;20043;-66
2023/06/20 11:37:07;;;;;;;15.43;10.45;;;32.20;78.60;;;;;;5092033;28;20392;-67
2023/06/20 11:40:12;;;;;;;13.38;9.40;;;32.20;79.20;;;;;;5092125;28;20047;-66
2023/06/20 11:43:22;;;;;;;12.13;9.65;;;32.20;79.40;;;;;;5091540;28;20403;-67
2023/06/20 11:46:26;;;;;;;11.38;9.27;;;32.20;79.40;;;;;;5091818;28;20495;-67
2023/06/20 11:49:31;;;;;;;17.90;10.52;;;32.20;79.50;;;;;;5091623;28;20047;-66
2023/06/20 11:52:36;;;;;;;9.35;8.32;;;32.20;79.20;;;;;;5091672;28;20046;-67
2023/06/20 11:55:49;;;;;;;13.68;9.05;;;32.10;78.10;;;;;;5091743;28;20503;-67
2023/06/20 11:58:54;;;;;;;14.52;8.95;;;32.20;78.60;;;;;;5091432;28;20042;-67
2023/06/20 12:01:58;;;;;;;13.45;8.93;;;32.10;77.80;;;;;;5091183;28;20040;-67
2023/06/20 12:05:02;;;;;;;16.92;9.77;;;32.10;77.30;;;;;;5091593;28;20055;-67
2023/06/20 12:08:06;;;;;;;11.60;8.68;;;32.10;78.80;;;;;;5091442;28;20043;-66
2023/06/20 12:11:13;;;;;;;12.32;8.48;;;32.10;79.30;;;;;;5091155;28;20062;-67
2023/06/20 12:14:17;;;;;;;11.80;7.93;;;32.10;79.80;;;;;;5091356;28;20043;-66
2023/06/20 12:17:21;;;;;;;11.65;9.07;;;32.10;79.90;;;;;;5091565;28;20055;-66
2023/06/20 12:20:25;;;;;;;10.25;8.00;;;32.10;80.30;;;;;;5091084;28;20043;-66
2023/06/20 12:23:29;;;;;;;9.13;7.22;;;32.10;79.90;;;;;;5091225;28;20039;-65
2023/06/20 12:26:33;;;;;;;15.48;7.85;;;32.00;79.30;;;;;;5091457;28;20043;-64
2023/06/20 12:29:37;;;;;;;10.30;7.55;;;32.00;78.80;;;;;;5091241;28;20507;-65
2023/06/20 12:32:41;;;;;;;8.73;7.15;;;31.90;78.50;;;;;;5091036;28;20201;-65
2023/06/20 12:35:45;;;;;;;8.73;6.47;;;31.90;75.60;;;;;;5091131;28;20043;-65
2023/06/20 12:38:49;;;;;;;6.78;6.07;;;31.80;76.30;;;;;;5091264;28;20047;-65
2023/06/20 12:41:53;;;;;;;12.98;7.20;;;31.80;76.20;;;;;;5090257;28;20182;-65
2023/06/20 12:44:57;;;;;;;7.50;6.25;;;31.70;75.70;;;;;;5088925;28;20075;-66
2023/06/20 12:48:01;;;;;;;7.38;6.57;;;31.70;76.30;;;;;;5087973;28;20399;-65
2023/06/20 12:51:05;;;;;;;7.75;6.50;;;31.70;75.70;;;;;;5089642;28;20403;-66
2023/06/20 12:54:10;;;;;;;10.88;6.53;;;31.70;75.10;;;;;;5090707;28;20047;-66
2023/06/20 12:57:14;;;;;;;7.63;6.78;;;31.80;75.90;;;;;;5090931;28;20059;-66
2023/06/20 13:00:19;;;;;;;8.45;6.30;;;31.70;75.10;;;;;;5090523;28;20059;-67
2023/06/20 13:03:22;;;;;;;11.30;7.50;;;31.70;75.20;;;;;;5090666;28;20043;-66
2023/06/20 13:06:26;;;;;;;7.70;6.28;;;31.70;74.80;;;;;;5090742;28;20061;-66
2023/06/20 13:09:31;;;;;;;8.40;6.50;;;31.70;74.70;;;;;;5090514;28;20043;-66
2023/06/20 13:12:35;;;;;;;9.45;6.60;;;31.70;74.20;;;;;;5092902;28;20051;-66
2023/06/20 13:15:39;;;;;;;10.35;6.75;;;31.70;73.70;;;;;;5095047;28;20070;-66
2023/06/20 13:18:44;;;;;;;9.52;6.13;;;31.70;73.40;;;;;;5094207;28;20067;-65
2023/06/20 13:21:49;;;;;;;8.77;6.72;;;31.60;72.50;;;;;;5094694;28;20039;-64
2023/06/20 13:24:53;;;;;;;9.73;6.75;;;31.60;72.50;;;;;;5094493;28;20399;-65
2023/06/20 13:27:57;;;;;;;8.02;5.90;;;31.60;72.40;;;;;;5094549;28;20499;-65
2023/06/20 13:31:04;;;;;;;8.50;6.28;;;31.60;72.90;;;;;;5094738;28;20047;-67
2023/06/20 13:34:08;;;;;;;6.18;5.57;;;31.70;73.30;;;;;;5094661;28;20050;-65
2023/06/20 13:37:11;;;;;;;8.82;6.28;;;31.60;73.20;;;;;;5094270;28;20047;-64
2023/06/20 13:40:16;;;;;;;7.82;5.97;;;31.70;72.10;;;;;;5094535;28;20392;-65
2023/06/20 13:43:20;;;;;;;8.68;5.93;;;31.70;72.00;;;;;;5094244;28;20498;-66
2023/06/20 13:46:24;;;;;;;10.27;6.75;;;31.70;71.80;;;;;;5094028;28;20057;-67
2023/06/20 13:49:28;;;;;;;14.50;6.05;;;31.70;70.20;;;;;;5094075;28;20043;-66
2023/06/20 13:52:33;;;;;;;6.20;5.57;;;31.70;71.10;;;;;;5094095;28;20047;-69
2023/06/20 13:55:37;;;;;;;10.57;5.50;;;31.70;71.30;;;;;;5094109;28;20079;-66
2023/06/20 13:58:41;;;;;;;7.25;5.82;;;31.70;71.20;;;;;;5093854;28;20035;-67
2023/06/20 14:01:45;;;;;;;6.45;5.80;;;31.70;71.90;;;;;;5093828;28;20043;-67
2023/06/20 14:04:49;;;;;;;8.48;6.25;;;31.70;71.60;;;;;;5093633;28;20514;-66
2023/06/20 14:07:53;;;;;;;8.15;6.10;;;31.70;71.60;;;;;;5092480;28;20507;-67
2023/06/20 14:10:57;;;;;;;10.70;6.00;;;31.70;71.00;;;;;;5093902;28;20070;-66
2023/06/20 14:14:01;;;;;;;8.40;5.03;;;31.70;72.00;;;;;;5093289;28;20043;-66
2023/06/20 14:17:05;;;;;;;6.78;5.40;;;31.70;72.50;;;;;;5093453;28;20044;-66
2023/06/20 14:20:10;;;;;;;8.77;5.55;;;31.70;72.90;;;;;;5093053;28;20063;-66
2023/06/20 14:23:13;;;;;;;6.45;5.07;;;31.70;72.10;;;;;;5091513;28;20043;-66
2023/06/20 14:26:19;;;;;;;7.07;4.90;;;31.70;71.70;;;;;;5092547;28;20051;-66
2023/06/20 14:29:23;;;;;;;6.85;4.50;;;31.70;71.10;;;;;;5093174;28;20506;-66
2023/06/20 14:32:27;;;;;;;7.90;5.53;;;31.70;69.70;;;;;;5093097;28;20047;-66
2023/06/20 14:35:31;;;;;;;9.35;5.55;;;31.70;70.00;;;;;;5079169;28;20050;-66
2023/06/20 14:38:40;;;;;;;13.10;5.60;;;31.70;71.00;;;;;;5091292;28;20474;-65
2023/06/20 14:41:43;;;;;;;11.50;6.13;;;31.70;71.90;;;;;;5092461;28;20051;-64
2023/06/20 14:44:47;;;;;;;8.98;5.35;;;31.70;71.90;;;;;;5091753;28;20117;-65
2023/06/20 14:47:52;;;;;;;6.20;4.70;;;31.60;71.30;;;;;;5092818;28;20059;-64
2023/06/20 14:50:56;;;;;;;15.15;5.65;;;31.60;70.30;;;;;;5092637;28;20051;-64
2023/06/20 14:53:59;;;;;;;16.38;5.25;;;32.40;68.50;;;;;;5092508;28;20043;-63
2023/06/20 14:57:04;;;;;;;14.88;5.75;;;33.50;66.00;;;;;;5092687;28;20047;-63
2023/06/20 15:00:14;;;;;;;15.85;5.10;;;34.80;65.60;;;;;;5092734;28;20400;-63
2023/06/20 15:03:18;;;;;;;10.65;5.22;;;35.70;63.90;;;;;;5091638;28;20510;-62
2023/06/20 15:06:23;;;;;;;10.95;5.65;;;36.10;62.60;;;;;;5092514;28;20459;-63
2023/06/20 15:09:27;;;;;;;36.92;6.50;;;36.20;62.20;;;;;;5092158;28;20043;-62
2023/06/20 15:12:31;;;;;;;8.55;6.22;;;36.50;62.90;;;;;;5092222;28;20073;-63
2023/06/20 15:15:35;;;;;;;19.65;5.25;;;36.50;62.40;;;;;;5092148;28;20039;-62
2023/06/20 15:18:39;;;;;;;17.55;5.10;;;36.30;62.50;;;;;;5092091;28;20111;-63
2023/06/20 15:21:44;;;;;;;12.18;5.22;;;36.30;61.30;;;;;;5092112;28;20050;-63
2023/06/20 15:24:48;;;;;;;11.80;5.38;;;35.90;62.70;;;;;;5091913;28;20055;-64
2023/06/20 15:27:51;;;;;;;11.05;4.78;;;35.80;62.60;;;;;;5091819;28;20039;-62
2023/06/20 15:30:55;;;;;;;10.88;5.25;;;35.70;63.10;;;;;;5091744;28;20404;-64
2023/06/20 15:34:00;;;;;;;10.05;4.97;;;35.80;64.20;;;;;;5092155;28;20047;-63
2023/06/20 15:37:04;;;;;;;14.98;5.10;;;35.90;62.90;;;;;;5092095;28;20054;-62
2023/06/20 15:40:08;;;;;;;21.08;6.22;;;35.60;63.10;;;;;;5091600;28;20043;-62
2023/06/20 15:43:12;;;;;;;12.00;5.28;;;35.20;63.40;;;;;;5091709;28;20079;-63
2023/06/20 15:46:16;;;;;;;9.73;5.70;;;34.50;65.10;;;;;;5091586;28;20051;-64
2023/06/20 15:49:22;;;;;;;12.68;5.75;;;33.90;66.20;;;;;;5091688;28;20043;-63
2023/06/20 15:52:27;;;;;;;8.85;5.13;;;33.40;66.30;;;;;;5091527;28;20039;-63